createdAt,value
2022-10-06T00:01:12.488Z,21.00
2022-10-06T00:03:41.015Z,20.90
2022-10-06T00:06:11.108Z,20.30
2022-10-06T00:08:39.927Z,20.50
2022-10-06T00:11:08.738Z,20.60
2022-10-06T00:13:36.400Z,20.50
2022-10-06T00:16:08.591Z,20.20
2022-10-06T00:18:35.348Z,20.40
2022-10-06T00:21:04.112Z,20.30
2022-10-06T00:23:31.634Z,20.40
2022-10-06T00:25:58.525Z,20.50
2022-10-06T00:28:26.142Z,20.30
2022-10-06T00:30:53.688Z,20.10
2022-10-06T00:33:20.851Z,20.00
2022-10-06T00:35:47.871Z,20.20
2022-10-06T00:38:16.872Z,20.20
2022-10-06T00:40:49.982Z,20.40
2022-10-06T00:43:43.337Z,19.80
2022-10-06T00:46:24.588Z,19.80
2022-10-06T00:48:59.884Z,20.20
2022-10-06T00:51:28.859Z,19.90
2022-10-06T00:53:57.476Z,19.70
2022-10-06T00:56:25.618Z,19.40
2022-10-06T00:58:52.659Z,19.10
2022-10-06T01:01:19.795Z,19.20
2022-10-06T01:03:59.452Z,19.50
2022-10-06T01:06:26.196Z,19.40
2022-10-06T01:08:53.414Z,18.80
2022-10-06T01:11:20.928Z,18.70
2022-10-06T01:13:47.858Z,18.80
2022-10-06T01:16:24.163Z,18.60
2022-10-06T01:18:55.459Z,18.50
2022-10-06T01:21:34.954Z,18.60
2022-10-06T01:24:03.230Z,18.60
2022-10-06T01:26:32.976Z,18.60
2022-10-06T01:28:59.906Z,18.40
2022-10-06T01:31:27.482Z,18.50
2022-10-06T01:33:55.687Z,18.40
2022-10-06T01:45:37.303Z,18.40
2022-10-06T01:52:01.650Z,18.30
2022-10-06T01:54:50.633Z,18.50
2022-10-06T02:00:39.958Z,19.50
2022-10-06T02:03:24.685Z,19.90
2022-10-06T02:06:03.431Z,20.00
2022-10-06T02:08:44.603Z,20.10
2022-10-06T02:11:33.395Z,20.10
2022-10-06T02:14:28.539Z,20.20
2022-10-06T02:17:28.179Z,20.20
2022-10-06T02:20:21.774Z,20.20
2022-10-06T02:23:06.093Z,20.20
2022-10-06T02:26:03.736Z,20.20
2022-10-06T02:28:32.411Z,20.10
2022-10-06T02:31:04.186Z,19.70
2022-10-06T02:33:32.465Z,19.10
2022-10-06T02:36:00.217Z,18.90
2022-10-06T02:38:27.727Z,19.10
2022-10-06T02:40:55.192Z,19.20
2022-10-06T02:43:22.109Z,19.10
2022-10-06T02:46:01.238Z,18.90
2022-10-06T02:48:29.139Z,19.00
2022-10-06T02:51:01.117Z,18.90
2022-10-06T02:53:29.189Z,19.30
2022-10-06T02:56:03.226Z,19.60
2022-10-06T02:58:30.500Z,19.60
2022-10-06T03:01:10.423Z,19.50
2022-10-06T03:03:37.834Z,19.70
2022-10-06T03:06:23.038Z,19.40
2022-10-06T03:08:53.215Z,19.70
2022-10-06T03:11:25.734Z,19.70
2022-10-06T03:13:53.232Z,19.80
2022-10-06T03:16:25.861Z,19.70
2022-10-06T03:18:55.279Z,19.70
2022-10-06T03:21:25.901Z,19.50
2022-10-06T03:23:54.379Z,19.70
2022-10-06T03:26:24.356Z,19.70
2022-10-06T03:28:51.072Z,19.60
2022-10-06T03:31:17.997Z,19.60
2022-10-06T03:33:44.791Z,19.40
2022-10-06T03:36:15.372Z,19.60
2022-10-06T03:38:42.846Z,19.60
2022-10-06T03:41:19.177Z,19.50
2022-10-06T03:43:49.074Z,19.70
2022-10-06T03:46:19.767Z,19.80
2022-10-06T03:48:47.936Z,19.80
2022-10-06T03:51:18.671Z,19.70
2022-10-06T03:53:48.643Z,19.40
2022-10-06T03:56:32.432Z,19.50
2022-10-06T03:59:02.596Z,19.60
2022-10-06T04:01:39.335Z,19.70
2022-10-06T04:04:07.137Z,19.40
2022-10-06T04:06:37.713Z,19.40
2022-10-06T04:09:10.243Z,19.70
2022-10-06T04:11:41.063Z,19.70
2022-10-06T04:14:11.147Z,19.50
2022-10-06T04:16:41.560Z,19.80
2022-10-06T04:19:10.910Z,19.50
2022-10-06T04:21:39.640Z,19.60
2022-10-06T04:24:08.143Z,19.50
2022-10-06T04:26:39.067Z,19.60
2022-10-06T04:29:06.740Z,19.70
2022-10-06T04:31:39.088Z,19.60
2022-10-06T04:34:07.483Z,19.70
2022-10-06T04:36:40.807Z,19.80
2022-10-06T04:39:11.035Z,19.70
2022-10-06T04:41:41.531Z,19.70
2022-10-06T04:44:08.946Z,19.80
2022-10-06T04:46:44.459Z,19.80
2022-10-06T04:49:19.100Z,19.20
2022-10-06T04:51:48.965Z,19.40
2022-10-06T04:54:15.931Z,19.60
2022-10-06T04:56:42.743Z,19.70
2022-10-06T04:59:09.462Z,19.80
2022-10-06T05:01:37.552Z,19.70
2022-10-06T05:04:06.210Z,19.30
2022-10-06T05:06:37.248Z,19.40
2022-10-06T05:09:15.789Z,19.70
2022-10-06T05:11:42.845Z,19.50
2022-10-06T05:14:09.874Z,19.70
2022-10-06T05:16:39.307Z,19.70
2022-10-06T05:19:06.243Z,19.70
2022-10-06T05:21:33.718Z,19.70
2022-10-06T05:24:00.954Z,19.60
2022-10-06T05:26:31.064Z,19.50
2022-10-06T05:28:58.330Z,19.50
2022-10-06T05:31:31.780Z,19.60
2022-10-06T05:33:59.906Z,19.30
2022-10-06T05:36:33.885Z,19.50
2022-10-06T05:39:01.718Z,19.30
2022-10-06T05:41:31.300Z,18.90
2022-10-06T05:43:58.874Z,18.20
2022-10-06T05:46:31.163Z,18.50
2022-10-06T05:49:01.142Z,18.50
2022-10-06T05:51:32.447Z,18.10
2022-10-06T05:54:00.308Z,17.90
2022-10-06T05:56:33.410Z,17.90
2022-10-06T05:59:01.203Z,18.20
2022-10-06T06:01:42.691Z,18.30
2022-10-06T06:04:13.111Z,18.00
2022-10-06T06:06:45.757Z,17.80
2022-10-06T06:09:18.737Z,17.90
2022-10-06T06:11:50.675Z,17.60
2022-10-06T06:14:40.031Z,17.60
2022-10-06T06:17:07.219Z,17.60
2022-10-06T06:19:33.946Z,17.70
2022-10-06T06:22:00.747Z,17.50
2022-10-06T06:24:27.487Z,18.10
2022-10-06T06:26:54.320Z,18.00
2022-10-06T06:29:21.045Z,18.10
2022-10-06T06:31:48.538Z,18.00
2022-10-06T06:34:15.318Z,18.00
2022-10-06T06:36:45.746Z,18.00
2022-10-06T06:39:14.943Z,18.00
2022-10-06T06:41:47.407Z,17.90
2022-10-06T06:44:14.859Z,17.80
2022-10-06T06:46:44.745Z,17.90
2022-10-06T06:49:12.217Z,17.80
2022-10-06T06:51:44.763Z,18.00
2022-10-06T06:54:12.853Z,18.10
2022-10-06T06:56:39.781Z,18.00
2022-10-06T06:59:13.165Z,18.10
2022-10-06T07:01:47.042Z,18.20
2022-10-06T07:04:16.020Z,18.00
2022-10-06T07:06:53.262Z,18.00
2022-10-06T07:09:20.778Z,17.80
2022-10-06T07:11:47.523Z,17.90
2022-10-06T07:14:14.259Z,18.10
2022-10-06T07:16:59.608Z,18.00
2022-10-06T07:19:44.711Z,17.90
2022-10-06T07:22:43.791Z,17.90
2022-10-06T07:25:26.357Z,17.80
2022-10-06T07:27:54.028Z,18.00
2022-10-06T07:30:25.523Z,17.60
2022-10-06T07:32:53.468Z,17.60
2022-10-06T07:35:22.360Z,17.80
2022-10-06T07:37:50.787Z,17.90
2022-10-06T07:40:18.430Z,17.70
2022-10-06T07:42:48.159Z,17.80
2022-10-06T07:45:39.238Z,17.80
2022-10-06T07:48:26.460Z,18.20
2022-10-06T07:50:53.345Z,18.20
2022-10-06T07:53:20.456Z,18.20
2022-10-06T07:55:47.756Z,17.90
2022-10-06T07:58:20.155Z,18.00
2022-10-06T08:00:52.677Z,18.30
2022-10-06T08:03:21.106Z,18.00
2022-10-06T08:05:54.197Z,18.00
2022-10-06T08:08:23.919Z,18.00
2022-10-06T08:11:06.281Z,17.80
2022-10-06T08:13:38.391Z,18.00
2022-10-06T08:16:24.536Z,18.20
2022-10-06T08:19:12.575Z,18.40
2022-10-06T08:22:17.678Z,18.20
2022-10-06T08:25:23.889Z,18.30
2022-10-06T08:28:18.920Z,18.70
2022-10-06T08:31:21.592Z,18.30
2022-10-06T08:34:26.613Z,18.30
2022-10-06T08:37:24.478Z,18.20
2022-10-06T08:39:52.845Z,18.10
2022-10-06T08:42:46.353Z,18.20
2022-10-06T08:45:25.976Z,18.10
2022-10-06T08:48:07.074Z,18.10
2022-10-06T08:51:00.271Z,18.30
2022-10-06T08:53:39.430Z,18.90
2022-10-06T08:56:22.552Z,18.40
2022-10-06T08:58:56.496Z,18.50
2022-10-06T09:01:33.171Z,18.60
2022-10-06T09:04:03.707Z,18.30
2022-10-06T09:06:54.224Z,18.10
2022-10-06T09:10:04.428Z,17.90
2022-10-06T09:12:51.917Z,18.00
2022-10-06T09:15:33.684Z,17.90
2022-10-06T09:18:24.600Z,17.80
2022-10-06T09:21:04.504Z,17.80
2022-10-06T09:23:49.392Z,17.90
2022-10-06T09:26:31.625Z,18.00
2022-10-06T09:28:59.036Z,17.80
2022-10-06T09:31:50.301Z,18.30
2022-10-06T09:34:38.323Z,18.10
2022-10-06T09:37:12.959Z,18.30
2022-10-06T09:39:43.184Z,18.20
2022-10-06T09:42:09.803Z,18.10
2022-10-06T09:45:31.351Z,18.30
2022-10-06T09:48:24.589Z,18.40
2022-10-06T09:51:14.740Z,18.40
2022-10-06T09:54:03.304Z,18.30
2022-10-06T09:56:32.444Z,18.80
2022-10-06T09:59:01.701Z,19.20
2022-10-06T10:01:31.713Z,18.80
2022-10-06T10:04:21.398Z,18.60
2022-10-06T10:06:48.783Z,18.60
2022-10-06T10:09:22.431Z,18.50
2022-10-06T10:12:24.381Z,18.80
2022-10-06T10:14:52.080Z,18.80
2022-10-06T10:17:38.418Z,18.70
2022-10-06T10:20:24.789Z,19.30
2022-10-06T10:22:53.185Z,19.50
2022-10-06T10:25:41.491Z,19.70
2022-10-06T10:28:11.087Z,19.70
2022-10-06T10:31:21.151Z,20.10
2022-10-06T10:34:23.974Z,20.20
2022-10-06T10:36:59.489Z,20.20
2022-10-06T10:39:48.691Z,19.80
2022-10-06T10:42:28.651Z,20.00
2022-10-06T10:45:02.818Z,20.10
2022-10-06T10:47:38.051Z,19.40
2022-10-06T10:50:34.440Z,19.60
2022-10-06T10:53:30.111Z,19.80
2022-10-06T10:55:57.367Z,19.80
2022-10-06T10:58:40.187Z,20.10
2022-10-06T11:01:25.605Z,19.90
2022-10-06T11:03:58.620Z,19.80
2022-10-06T11:07:19.526Z,19.70
2022-10-06T11:09:55.229Z,19.90
2022-10-06T11:13:11.047Z,19.90
2022-10-06T11:16:00.503Z,20.50
2022-10-06T11:19:15.052Z,20.30
2022-10-06T11:22:00.748Z,20.80
2022-10-06T11:24:57.706Z,20.60
2022-10-06T11:27:59.167Z,20.20
2022-10-06T11:30:26.674Z,20.20
2022-10-06T11:33:10.536Z,19.90
2022-10-06T11:35:41.833Z,19.90
2022-10-06T11:38:38.045Z,19.70
2022-10-06T11:41:27.471Z,19.70
2022-10-06T11:44:34.613Z,19.60
2022-10-06T11:47:15.570Z,19.80
2022-10-06T11:49:52.219Z,19.60
2022-10-06T11:52:18.987Z,20.00
2022-10-06T11:55:06.622Z,19.90
2022-10-06T11:57:34.046Z,20.00
2022-10-06T12:00:15.853Z,20.00
2022-10-06T12:02:45.951Z,20.10
2022-10-06T12:05:44.708Z,20.20
2022-10-06T12:08:03.280Z,20.50
2022-10-06T12:10:30.119Z,20.40
2022-10-06T12:13:39.973Z,20.30
2022-10-06T12:17:05.976Z,20.50
2022-10-06T12:19:46.340Z,20.50
2022-10-06T12:22:37.702Z,20.80
2022-10-06T12:25:37.304Z,20.50
2022-10-06T12:28:25.034Z,20.40
2022-10-06T12:31:19.468Z,20.80
2022-10-06T12:33:46.924Z,20.90
2022-10-06T12:36:28.405Z,20.70
2022-10-06T12:39:06.887Z,20.60
2022-10-06T12:42:20.391Z,20.60
2022-10-06T12:44:49.830Z,20.70
2022-10-06T12:47:34.955Z,20.80
2022-10-06T12:50:25.646Z,20.50
2022-10-06T12:53:05.828Z,20.70
2022-10-06T12:56:28.113Z,20.70
2022-10-06T12:58:55.779Z,20.80
2022-10-06T13:01:23.296Z,21.40
2022-10-06T13:03:52.057Z,21.90
2022-10-06T13:06:24.625Z,21.60
2022-10-06T13:09:14.315Z,21.90
2022-10-06T13:11:41.244Z,21.40
2022-10-06T13:14:14.079Z,21.60
2022-10-06T13:16:46.926Z,21.30
2022-10-06T13:19:26.460Z,21.10
2022-10-06T13:21:53.596Z,21.10
2022-10-06T13:24:26.126Z,21.10
2022-10-06T13:26:53.884Z,20.70
2022-10-06T13:29:24.953Z,20.70
2022-10-06T13:31:54.592Z,20.90
2022-10-06T13:34:30.701Z,21.00
2022-10-06T13:36:59.965Z,21.70
2022-10-06T13:39:32.235Z,21.60
2022-10-06T13:42:13.790Z,22.80
2022-10-06T13:44:47.860Z,22.70
2022-10-06T13:47:29.953Z,23.00
2022-10-06T13:51:15.446Z,22.80
2022-10-06T13:54:06.772Z,22.80
2022-10-06T13:57:13.834Z,22.70
2022-10-06T14:01:04.751Z,22.60
2022-10-06T14:13:23.069Z,23.00
2022-10-06T14:16:03.608Z,24.00
2022-10-06T14:21:42.381Z,23.00
2022-10-06T14:24:19.357Z,22.70
2022-10-06T14:26:50.014Z,22.40
2022-10-06T14:29:17.548Z,22.90
2022-10-06T14:31:45.657Z,23.30
2022-10-06T14:34:15.256Z,23.10
2022-10-06T14:36:45.281Z,23.00
2022-10-06T14:39:14.487Z,22.70
2022-10-06T14:41:41.446Z,23.40
2022-10-06T14:44:11.470Z,22.90
2022-10-06T14:46:41.190Z,23.20
2022-10-06T14:49:16.153Z,22.70
2022-10-06T14:51:44.562Z,22.80
2022-10-06T14:54:12.085Z,22.70
2022-10-06T14:56:40.399Z,22.70
2022-10-06T14:59:11.924Z,22.00
2022-10-06T15:01:40.432Z,21.90
2022-10-06T15:04:13.825Z,22.00
2022-10-06T15:07:00.319Z,21.80
2022-10-06T15:09:30.630Z,21.50
2022-10-06T15:11:58.375Z,21.00
2022-10-06T15:14:25.307Z,20.50
2022-10-06T15:16:52.252Z,20.60
2022-10-06T15:19:19.080Z,20.50
2022-10-06T15:21:46.113Z,20.90
2022-10-06T15:24:18.511Z,20.50
2022-10-06T15:27:05.158Z,20.90
2022-10-06T15:29:34.663Z,20.80
2022-10-06T15:32:02.874Z,20.40
2022-10-06T15:34:33.475Z,20.90
2022-10-06T15:37:01.964Z,20.60
2022-10-06T15:39:31.586Z,20.40
2022-10-06T15:41:58.959Z,20.30
2022-10-06T15:44:26.210Z,20.20
2022-10-06T15:46:57.706Z,20.40
2022-10-06T15:49:26.541Z,20.40
2022-10-06T15:51:59.693Z,20.10
2022-10-06T15:54:37.413Z,19.90
2022-10-06T15:57:10.559Z,20.10
2022-10-06T15:59:39.958Z,20.10
2022-10-06T16:02:17.679Z,20.00
2022-10-06T16:05:06.965Z,20.00
2022-10-06T16:07:34.811Z,19.90
2022-10-06T16:10:01.536Z,19.90
2022-10-06T16:12:28.550Z,19.80
2022-10-06T16:14:55.373Z,19.80
2022-10-06T16:17:22.115Z,19.70
2022-10-06T16:19:49.188Z,19.90
2022-10-06T16:22:18.447Z,20.00
2022-10-06T16:24:45.205Z,19.80
2022-10-06T16:27:14.213Z,19.50
2022-10-06T16:29:41.146Z,19.40
2022-10-06T16:32:08.029Z,19.20
2022-10-06T16:34:34.761Z,19.30
2022-10-06T16:37:01.650Z,19.30
2022-10-06T16:39:28.426Z,19.20
2022-10-06T16:41:55.173Z,19.30
2022-10-06T16:44:21.935Z,19.30
2022-10-06T16:46:48.775Z,19.20
2022-10-06T16:49:15.542Z,19.00
2022-10-06T16:51:45.685Z,18.90
2022-10-06T16:54:14.450Z,19.00
2022-10-06T16:56:47.031Z,19.10
2022-10-06T16:59:26.407Z,18.90
2022-10-06T17:01:53.327Z,18.90
2022-10-06T17:04:23.074Z,18.80
2022-10-06T17:06:57.630Z,19.00
2022-10-06T17:09:27.125Z,18.90
2022-10-06T17:11:57.298Z,18.70
2022-10-06T17:14:24.826Z,18.40
2022-10-06T17:16:54.211Z,18.70
2022-10-06T17:19:24.713Z,18.50
2022-10-06T17:21:57.433Z,18.40
2022-10-06T17:24:27.745Z,18.10
2022-10-06T17:26:54.959Z,18.40
2022-10-06T17:29:23.502Z,18.30
2022-10-06T17:31:59.107Z,18.30
2022-10-06T17:34:31.769Z,18.30
2022-10-06T17:37:01.491Z,18.30
2022-10-06T17:39:28.241Z,18.20
2022-10-06T17:41:55.068Z,18.00
2022-10-06T17:44:25.822Z,17.90
2022-10-06T17:46:56.911Z,18.00
2022-10-06T17:49:24.307Z,18.10
2022-10-06T17:51:53.800Z,18.10
2022-10-06T17:54:24.211Z,18.30
2022-10-06T17:56:54.833Z,18.10
2022-10-06T17:59:30.789Z,18.10
2022-10-06T18:02:01.333Z,17.90
2022-10-06T18:04:28.793Z,18.00
2022-10-06T18:06:55.596Z,17.90
2022-10-06T18:09:23.124Z,17.90
2022-10-06T18:11:55.329Z,17.80
2022-10-06T18:14:25.891Z,17.90
2022-10-06T18:16:57.702Z,17.80
2022-10-06T18:19:30.579Z,17.70
2022-10-06T18:22:09.915Z,17.70
2022-10-06T18:24:37.514Z,17.70
2022-10-06T18:27:06.238Z,17.70
2022-10-06T18:29:36.144Z,17.70
2022-10-06T18:32:42.104Z,17.60
2022-10-06T18:37:39.657Z,17.50
2022-10-06T18:40:09.804Z,17.70
2022-10-06T18:42:37.434Z,17.60
2022-10-06T18:45:23.737Z,17.70
2022-10-06T18:48:08.956Z,17.70
2022-10-06T18:50:35.711Z,17.80
2022-10-06T18:53:04.236Z,17.70
2022-10-06T18:55:31.775Z,17.80
2022-10-06T18:57:58.866Z,17.90
2022-10-06T19:00:26.225Z,17.80
2022-10-06T19:02:55.297Z,18.00
2022-10-06T19:05:22.722Z,17.70
2022-10-06T19:07:49.496Z,17.70
2022-10-06T19:10:16.369Z,17.80
2022-10-06T19:12:43.095Z,17.70
2022-10-06T19:15:10.000Z,17.70
2022-10-06T19:17:39.739Z,17.80
2022-10-06T19:20:08.036Z,17.70
2022-10-06T19:22:36.781Z,18.00
2022-10-06T19:25:03.880Z,18.00
2022-10-06T19:27:31.550Z,18.00
2022-10-06T19:29:58.269Z,17.90
2022-10-06T19:32:28.260Z,17.90
2022-10-06T19:34:58.709Z,17.90
2022-10-06T19:37:30.362Z,17.80
2022-10-06T19:39:58.146Z,17.90
2022-10-06T19:42:43.642Z,17.80
2022-10-06T19:45:11.830Z,18.00
2022-10-06T19:47:39.733Z,18.10
2022-10-06T19:50:11.666Z,18.00
2022-10-06T19:52:40.242Z,17.80
2022-10-06T19:55:07.093Z,17.90
2022-10-06T19:57:33.935Z,18.10
2022-10-06T20:00:00.930Z,18.10
2022-10-06T20:02:28.812Z,18.00
2022-10-06T20:04:56.389Z,17.70
2022-10-06T20:07:27.489Z,17.70
2022-10-06T20:09:55.036Z,17.50
2022-10-06T20:12:24.927Z,17.60
2022-10-06T20:14:56.367Z,17.40
2022-10-06T20:17:23.103Z,17.20
2022-10-06T20:19:55.126Z,17.10
2022-10-06T20:22:24.855Z,17.00
2022-10-06T20:24:52.145Z,16.90
2022-10-06T20:27:18.994Z,17.10
2022-10-06T20:29:45.747Z,17.10
2022-10-06T20:32:12.533Z,17.00
2022-10-06T20:34:39.376Z,17.00
2022-10-06T20:37:06.312Z,17.10
2022-10-06T20:39:52.582Z,17.20
2022-10-06T20:42:20.883Z,17.00
2022-10-06T20:44:48.094Z,16.90
2022-10-06T20:47:16.471Z,16.90
2022-10-06T20:49:43.838Z,17.00
2022-10-06T20:52:14.243Z,17.00
2022-10-06T20:54:41.155Z,16.70
2022-10-06T20:57:09.277Z,16.60
2022-10-06T20:59:36.072Z,16.60
2022-10-06T21:02:04.579Z,16.60
2022-10-06T21:04:31.496Z,16.90
2022-10-06T21:06:58.416Z,17.10
2022-10-06T21:09:28.317Z,17.20
2022-10-06T21:11:56.468Z,17.10
2022-10-06T21:14:23.850Z,17.10
2022-10-06T21:16:51.674Z,16.60
2022-10-06T21:19:19.550Z,16.80
2022-10-06T21:21:53.236Z,17.00
2022-10-06T21:24:20.738Z,16.90
2022-10-06T21:26:48.803Z,17.10
2022-10-06T21:29:16.469Z,16.90
2022-10-06T21:31:44.968Z,16.80
2022-10-06T21:34:14.282Z,16.90
2022-10-06T21:36:41.571Z,16.90
2022-10-06T21:39:09.007Z,16.90
2022-10-06T21:41:41.052Z,16.80
2022-10-06T21:44:20.100Z,16.90
2022-10-06T21:46:53.312Z,17.10
2022-10-06T21:49:23.359Z,17.20
2022-10-06T21:51:54.574Z,17.00
2022-10-06T21:54:22.978Z,17.10
2022-10-06T21:56:50.467Z,17.20
2022-10-06T21:59:17.423Z,17.20
2022-10-06T22:01:46.513Z,17.30
2022-10-06T22:04:14.971Z,17.30
2022-10-06T22:06:43.955Z,17.40
2022-10-06T22:09:15.777Z,17.70
2022-10-06T22:11:42.983Z,17.30
2022-10-06T22:14:15.997Z,17.00
2022-10-06T22:16:44.787Z,17.10
2022-10-06T22:19:14.546Z,17.10
2022-10-06T22:21:44.904Z,17.10
2022-10-06T22:24:15.808Z,17.10
2022-10-06T22:26:43.708Z,17.00
2022-10-06T22:29:13.748Z,16.80
2022-10-06T22:31:43.993Z,17.10
2022-10-06T22:34:13.639Z,17.00
2022-10-06T22:36:40.926Z,16.80
2022-10-06T22:39:08.102Z,17.00
2022-10-06T22:41:34.971Z,17.00
2022-10-06T22:44:01.975Z,16.80
2022-10-06T22:46:35.483Z,16.90
2022-10-06T22:49:03.775Z,17.00
2022-10-06T22:51:30.752Z,17.10
2022-10-06T22:53:59.867Z,17.00
2022-10-06T22:56:29.960Z,17.40
2022-10-06T22:58:59.736Z,17.10
2022-10-06T23:01:29.129Z,16.80
2022-10-06T23:03:56.669Z,16.90
2022-10-06T23:06:24.579Z,16.80
2022-10-06T23:08:51.976Z,16.60
2022-10-06T23:11:21.859Z,16.70
2022-10-06T23:13:50.511Z,16.70
2022-10-06T23:16:19.478Z,16.60
2022-10-06T23:18:47.652Z,16.50
2022-10-06T23:21:21.948Z,16.80
2022-10-06T23:23:55.349Z,17.10
2022-10-06T23:26:23.843Z,17.10
2022-10-06T23:28:53.948Z,17.10
2022-10-06T23:31:21.001Z,17.00
2022-10-06T23:33:48.778Z,17.00
2022-10-06T23:36:15.864Z,16.90
2022-10-06T23:38:42.812Z,17.10
2022-10-06T23:41:09.667Z,17.00
2022-10-06T23:43:36.799Z,17.10
2022-10-06T23:46:04.380Z,17.20
2022-10-06T23:48:31.686Z,17.30
2022-10-06T23:51:08.527Z,16.90
2022-10-06T23:53:35.881Z,16.90
2022-10-06T23:56:03.844Z,16.70
2022-10-06T23:58:30.709Z,16.80
